sensor_id;sensor_type;location;lat;lon;timestamp;temperature;humidity
35305;DHT22;26433;48.034;-1.764;2023-07-30T00:01:43;17.40;98.70
35305;DHT22;26433;48.034;-1.764;2023-07-30T00:06:47;17.40;98.90
35305;DHT22;26433;48.034;-1.764;2023-07-30T00:11:50;17.30;98.80
35305;DHT22;26433;48.034;-1.764;2023-07-30T00:16:55;17.20;99.00
35305;DHT22;26433;48.034;-1.764;2023-07-30T00:21:59;17.10;99.10
35305;DHT22;26433;48.034;-1.764;2023-07-30T00:27:02;17.10;99.20
35305;DHT22;26433;48.034;-1.764;2023-07-30T00:32:08;17.10;99.20
35305;DHT22;26433;48.034;-1.764;2023-07-30T00:37:11;17.00;99.20
35305;DHT22;26433;48.034;-1.764;2023-07-30T00:42:15;17.00;99.30
35305;DHT22;26433;48.034;-1.764;2023-07-30T00:47:22;17.00;99.30
35305;DHT22;26433;48.034;-1.764;2023-07-30T00:52:26;17.00;99.40
35305;DHT22;26433;48.034;-1.764;2023-07-30T00:57:30;17.00;99.40
35305;DHT22;26433;48.034;-1.764;2023-07-30T01:02:36;17.00;99.50
35305;DHT22;26433;48.034;-1.764;2023-07-30T01:07:40;17.00;99.50
35305;DHT22;26433;48.034;-1.764;2023-07-30T01:12:44;17.00;99.50
35305;DHT22;26433;48.034;-1.764;2023-07-30T01:17:49;17.00;99.50
35305;DHT22;26433;48.034;-1.764;2023-07-30T01:22:54;17.00;99.80
35305;DHT22;26433;48.034;-1.764;2023-07-30T01:28:00;17.00;99.80
35305;DHT22;26433;48.034;-1.764;2023-07-30T01:33:05;17.00;99.70
35305;DHT22;26433;48.034;-1.764;2023-07-30T01:38:11;17.00;99.90
35305;DHT22;26433;48.034;-1.764;2023-07-30T01:43:16;17.10;99.80
35305;DHT22;26433;48.034;-1.764;2023-07-30T01:48:19;17.10;99.90
35305;DHT22;26433;48.034;-1.764;2023-07-30T01:53:24;17.00;99.90
35305;DHT22;26433;48.034;-1.764;2023-07-30T01:58:28;17.00;99.90
35305;DHT22;26433;48.034;-1.764;2023-07-30T02:03:31;17.00;99.90
35305;DHT22;26433;48.034;-1.764;2023-07-30T02:08:37;17.00;99.90
35305;DHT22;26433;48.034;-1.764;2023-07-30T02:13:40;17.10;99.90
35305;DHT22;26433;48.034;-1.764;2023-07-30T02:23:50;17.10;99.90
35305;DHT22;26433;48.034;-1.764;2023-07-30T02:28:54;17.20;99.90
35305;DHT22;26433;48.034;-1.764;2023-07-30T02:39:03;17.20;99.90
35305;DHT22;26433;48.034;-1.764;2023-07-30T02:44:07;17.20;99.90
35305;DHT22;26433;48.034;-1.764;2023-07-30T02:49:10;17.20;99.90
35305;DHT22;26433;48.034;-1.764;2023-07-30T02:54:15;17.30;99.90
35305;DHT22;26433;48.034;-1.764;2023-07-30T02:59:19;17.30;99.90
35305;DHT22;26433;48.034;-1.764;2023-07-30T03:04:23;17.30;99.90
35305;DHT22;26433;48.034;-1.764;2023-07-30T03:09:28;17.30;99.90
35305;DHT22;26433;48.034;-1.764;2023-07-30T03:14:31;17.30;99.90
35305;DHT22;26433;48.034;-1.764;2023-07-30T03:19:35;17.20;99.90
35305;DHT22;26433;48.034;-1.764;2023-07-30T03:24:40;17.10;99.90
35305;DHT22;26433;48.034;-1.764;2023-07-30T03:29:43;17.00;99.90
35305;DHT22;26433;48.034;-1.764;2023-07-30T03:34:47;17.00;99.90
35305;DHT22;26433;48.034;-1.764;2023-07-30T03:39:52;17.00;99.90
35305;DHT22;26433;48.034;-1.764;2023-07-30T03:44:55;17.00;99.90
35305;DHT22;26433;48.034;-1.764;2023-07-30T03:49:59;16.90;99.90
35305;DHT22;26433;48.034;-1.764;2023-07-30T03:55:05;16.80;99.90
35305;DHT22;26433;48.034;-1.764;2023-07-30T04:00:10;16.80;99.90
35305;DHT22;26433;48.034;-1.764;2023-07-30T04:05:15;16.80;99.90
35305;DHT22;26433;48.034;-1.764;2023-07-30T04:10:19;16.80;99.90
35305;DHT22;26433;48.034;-1.764;2023-07-30T04:15:23;16.80;99.90
35305;DHT22;26433;48.034;-1.764;2023-07-30T04:20:27;16.80;99.90
35305;DHT22;26433;48.034;-1.764;2023-07-30T04:25:32;16.90;99.90
35305;DHT22;26433;48.034;-1.764;2023-07-30T04:30:35;16.90;99.90
35305;DHT22;26433;48.034;-1.764;2023-07-30T04:35:39;16.90;99.90
35305;DHT22;26433;48.034;-1.764;2023-07-30T04:40:44;17.00;99.90
35305;DHT22;26433;48.034;-1.764;2023-07-30T04:45:48;17.00;99.90
35305;DHT22;26433;48.034;-1.764;2023-07-30T04:50:52;17.00;99.90
35305;DHT22;26433;48.034;-1.764;2023-07-30T04:55:57;17.00;99.90
35305;DHT22;26433;48.034;-1.764;2023-07-30T05:01:01;17.10;99.90
35305;DHT22;26433;48.034;-1.764;2023-07-30T05:06:05;17.10;99.90
35305;DHT22;26433;48.034;-1.764;2023-07-30T05:11:09;17.10;99.90
35305;DHT22;26433;48.034;-1.764;2023-07-30T05:16:13;17.10;99.90
35305;DHT22;26433;48.034;-1.764;2023-07-30T05:26:22;17.10;99.90
35305;DHT22;26433;48.034;-1.764;2023-07-30T05:31:26;17.10;99.90
35305;DHT22;26433;48.034;-1.764;2023-07-30T05:41:35;17.20;99.90
35305;DHT22;26433;48.034;-1.764;2023-07-30T05:46:39;17.20;99.90
35305;DHT22;26433;48.034;-1.764;2023-07-30T05:51:42;17.30;99.90
35305;DHT22;26433;48.034;-1.764;2023-07-30T05:56:47;17.30;99.90
35305;DHT22;26433;48.034;-1.764;2023-07-30T06:01:51;17.40;99.90
35305;DHT22;26433;48.034;-1.764;2023-07-30T06:06:54;17.50;99.90
35305;DHT22;26433;48.034;-1.764;2023-07-30T06:12:00;17.60;99.90
35305;DHT22;26433;48.034;-1.764;2023-07-30T06:17:03;17.60;99.90
35305;DHT22;26433;48.034;-1.764;2023-07-30T06:27:12;17.80;99.90
35305;DHT22;26433;48.034;-1.764;2023-07-30T06:32:16;17.90;99.90
35305;DHT22;26433;48.034;-1.764;2023-07-30T06:37:20;17.90;99.90
35305;DHT22;26433;48.034;-1.764;2023-07-30T06:42:25;17.90;99.90
35305;DHT22;26433;48.034;-1.764;2023-07-30T06:47:28;18.00;99.90
35305;DHT22;26433;48.034;-1.764;2023-07-30T06:52:32;18.00;99.90
35305;DHT22;26433;48.034;-1.764;2023-07-30T06:57:37;18.10;99.90
35305;DHT22;26433;48.034;-1.764;2023-07-30T07:02:40;18.10;99.90
35305;DHT22;26433;48.034;-1.764;2023-07-30T07:07:45;18.30;99.90
35305;DHT22;26433;48.034;-1.764;2023-07-30T07:12:50;18.40;99.90
35305;DHT22;26433;48.034;-1.764;2023-07-30T07:22:58;18.60;99.90
35305;DHT22;26433;48.034;-1.764;2023-07-30T07:28:03;18.80;99.90
35305;DHT22;26433;48.034;-1.764;2023-07-30T07:33:06;18.80;99.90
35305;DHT22;26433;48.034;-1.764;2023-07-30T07:38:14;18.90;99.90
35305;DHT22;26433;48.034;-1.764;2023-07-30T07:43:19;19.10;99.40
35305;DHT22;26433;48.034;-1.764;2023-07-30T07:48:22;19.10;99.60
35305;DHT22;26433;48.034;-1.764;2023-07-30T07:53:26;19.20;99.30
35305;DHT22;26433;48.034;-1.764;2023-07-30T07:58:31;19.30;99.00
35305;DHT22;26433;48.034;-1.764;2023-07-30T08:03:35;19.40;98.60
35305;DHT22;26433;48.034;-1.764;2023-07-30T08:08:38;19.70;98.00
35305;DHT22;26433;48.034;-1.764;2023-07-30T08:13:43;19.90;97.10
35305;DHT22;26433;48.034;-1.764;2023-07-30T08:18:48;20.00;96.30
35305;DHT22;26433;48.034;-1.764;2023-07-30T08:23:51;20.10;96.00
35305;DHT22;26433;48.034;-1.764;2023-07-30T08:28:56;20.30;95.50
35305;DHT22;26433;48.034;-1.764;2023-07-30T08:34:00;20.40;94.90
35305;DHT22;26433;48.034;-1.764;2023-07-30T08:39:04;20.60;94.20
35305;DHT22;26433;48.034;-1.764;2023-07-30T08:44:09;20.70;93.40
35305;DHT22;26433;48.034;-1.764;2023-07-30T08:49:13;20.80;93.40
35305;DHT22;26433;48.034;-1.764;2023-07-30T08:54:17;21.00;92.90
35305;DHT22;26433;48.034;-1.764;2023-07-30T08:59:23;21.10;92.50
35305;DHT22;26433;48.034;-1.764;2023-07-30T09:04:30;21.10;91.80
35305;DHT22;26433;48.034;-1.764;2023-07-30T09:09:37;21.10;92.10
35305;DHT22;26433;48.034;-1.764;2023-07-30T09:14:43;20.60;91.40
35305;DHT22;26433;48.034;-1.764;2023-07-30T09:19:48;21.50;91.00
35305;DHT22;26433;48.034;-1.764;2023-07-30T09:24:53;21.40;90.20
35305;DHT22;26433;48.034;-1.764;2023-07-30T09:29:59;21.30;90.80
35305;DHT22;26433;48.034;-1.764;2023-07-30T09:35:07;21.20;90.70
35305;DHT22;26433;48.034;-1.764;2023-07-30T09:40:13;21.30;90.60
35305;DHT22;26433;48.034;-1.764;2023-07-30T09:45:21;21.40;90.10
35305;DHT22;26433;48.034;-1.764;2023-07-30T09:50:25;21.60;89.00
35305;DHT22;26433;48.034;-1.764;2023-07-30T10:00:34;22.10;85.50
35305;DHT22;26433;48.034;-1.764;2023-07-30T10:10:42;22.50;83.40
35305;DHT22;26433;48.034;-1.764;2023-07-30T10:15:47;22.60;83.10
35305;DHT22;26433;48.034;-1.764;2023-07-30T10:20:52;22.70;83.00
35305;DHT22;26433;48.034;-1.764;2023-07-30T10:25:57;22.80;82.20
35305;DHT22;26433;48.034;-1.764;2023-07-30T10:31:05;23.00;81.80
35305;DHT22;26433;48.034;-1.764;2023-07-30T10:36:11;23.00;81.20
35305;DHT22;26433;48.034;-1.764;2023-07-30T10:41:15;23.00;79.80
35305;DHT22;26433;48.034;-1.764;2023-07-30T10:46:21;23.00;80.40
35305;DHT22;26433;48.034;-1.764;2023-07-30T10:56:32;23.20;78.30
35305;DHT22;26433;48.034;-1.764;2023-07-30T11:01:41;23.20;78.30
35305;DHT22;26433;48.034;-1.764;2023-07-30T11:06:45;23.40;77.70
35305;DHT22;26433;48.034;-1.764;2023-07-30T11:11:51;24.10;73.30
35305;DHT22;26433;48.034;-1.764;2023-07-30T11:16:58;24.50;71.80
35305;DHT22;26433;48.034;-1.764;2023-07-30T11:27:09;24.90;70.40
35305;DHT22;26433;48.034;-1.764;2023-07-30T11:32:14;25.20;71.50
35305;DHT22;26433;48.034;-1.764;2023-07-30T11:37:18;25.10;70.60
35305;DHT22;26433;48.034;-1.764;2023-07-30T11:42:22;25.00;70.10
35305;DHT22;26433;48.034;-1.764;2023-07-30T11:47:28;24.90;70.80
35305;DHT22;26433;48.034;-1.764;2023-07-30T12:02:41;24.30;70.60
35305;DHT22;26433;48.034;-1.764;2023-07-30T12:07:47;24.30;70.10
35305;DHT22;26433;48.034;-1.764;2023-07-30T12:12:51;24.20;70.70
35305;DHT22;26433;48.034;-1.764;2023-07-30T12:17:57;24.10;69.30
35305;DHT22;26433;48.034;-1.764;2023-07-30T12:23:01;24.10;70.00
35305;DHT22;26433;48.034;-1.764;2023-07-30T12:28:05;24.10;70.20
35305;DHT22;26433;48.034;-1.764;2023-07-30T12:33:10;23.80;70.00
35305;DHT22;26433;48.034;-1.764;2023-07-30T12:38:13;23.70;70.60
35305;DHT22;26433;48.034;-1.764;2023-07-30T12:43:17;23.60;70.70
35305;DHT22;26433;48.034;-1.764;2023-07-30T12:48:24;23.40;71.20
35305;DHT22;26433;48.034;-1.764;2023-07-30T12:58:32;23.00;71.40
35305;DHT22;26433;48.034;-1.764;2023-07-30T13:03:37;22.80;72.40
35305;DHT22;26433;48.034;-1.764;2023-07-30T13:08:41;22.70;73.10
35305;DHT22;26433;48.034;-1.764;2023-07-30T13:13:45;22.80;73.10
35305;DHT22;26433;48.034;-1.764;2023-07-30T13:18:50;23.20;71.80
35305;DHT22;26433;48.034;-1.764;2023-07-30T13:28:58;23.40;71.10
35305;DHT22;26433;48.034;-1.764;2023-07-30T13:34:03;23.30;71.70
35305;DHT22;26433;48.034;-1.764;2023-07-30T13:44:11;23.60;69.60
35305;DHT22;26433;48.034;-1.764;2023-07-30T13:49:16;24.20;68.30
35305;DHT22;26433;48.034;-1.764;2023-07-30T13:54:20;24.20;69.00
35305;DHT22;26433;48.034;-1.764;2023-07-30T14:04:29;24.20;67.40
35305;DHT22;26433;48.034;-1.764;2023-07-30T14:19:44;23.90;68.50
35305;DHT22;26433;48.034;-1.764;2023-07-30T14:24:47;23.80;69.20
35305;DHT22;26433;48.034;-1.764;2023-07-30T14:34:56;23.60;69.40
35305;DHT22;26433;48.034;-1.764;2023-07-30T14:40:00;23.60;70.00
35305;DHT22;26433;48.034;-1.764;2023-07-30T14:45:04;23.40;69.90
35305;DHT22;26433;48.034;-1.764;2023-07-30T14:50:10;23.30;70.40
35305;DHT22;26433;48.034;-1.764;2023-07-30T15:05:23;23.80;69.10
35305;DHT22;26433;48.034;-1.764;2023-07-30T15:20:35;24.20;67.60
35305;DHT22;26433;48.034;-1.764;2023-07-30T15:30:43;24.10;67.70
35305;DHT22;26433;48.034;-1.764;2023-07-30T15:35:49;24.20;68.50
35305;DHT22;26433;48.034;-1.764;2023-07-30T15:40:52;24.20;68.40
35305;DHT22;26433;48.034;-1.764;2023-07-30T15:51:05;23.80;67.90
35305;DHT22;26433;48.034;-1.764;2023-07-30T15:56:09;23.80;68.60
35305;DHT22;26433;48.034;-1.764;2023-07-30T16:06:22;23.30;69.20
35305;DHT22;26433;48.034;-1.764;2023-07-30T16:11:26;23.10;70.30
35305;DHT22;26433;48.034;-1.764;2023-07-30T16:21:36;23.00;70.00
35305;DHT22;26433;48.034;-1.764;2023-07-30T16:36:49;23.20;69.80
35305;DHT22;26433;48.034;-1.764;2023-07-30T16:46:56;23.20;69.80
35305;DHT22;26433;48.034;-1.764;2023-07-30T16:52:01;23.40;69.60
35305;DHT22;26433;48.034;-1.764;2023-07-30T16:57:06;23.40;70.30
35305;DHT22;26433;48.034;-1.764;2023-07-30T17:02:09;23.50;69.80
35305;DHT22;26433;48.034;-1.764;2023-07-30T17:07:14;23.50;69.80
35305;DHT22;26433;48.034;-1.764;2023-07-30T17:22:27;23.40;68.50
35305;DHT22;26433;48.034;-1.764;2023-07-30T17:27:32;23.40;68.90
35305;DHT22;26433;48.034;-1.764;2023-07-30T17:37:42;23.50;68.30
35305;DHT22;26433;48.034;-1.764;2023-07-30T17:42:45;23.40;68.90
35305;DHT22;26433;48.034;-1.764;2023-07-30T17:47:49;23.50;68.40
35305;DHT22;26433;48.034;-1.764;2023-07-30T17:52:54;23.50;68.30
35305;DHT22;26433;48.034;-1.764;2023-07-30T17:57:58;23.50;68.40
35305;DHT22;26433;48.034;-1.764;2023-07-30T18:08:07;23.10;68.10
35305;DHT22;26433;48.034;-1.764;2023-07-30T18:23:22;22.90;68.00
35305;DHT22;26433;48.034;-1.764;2023-07-30T18:28:25;22.80;68.60
35305;DHT22;26433;48.034;-1.764;2023-07-30T18:38:35;22.40;68.80
35305;DHT22;26433;48.034;-1.764;2023-07-30T18:53:47;22.10;69.30
35305;DHT22;26433;48.034;-1.764;2023-07-30T19:03:55;22.00;69.60
35305;DHT22;26433;48.034;-1.764;2023-07-30T19:09:00;21.70;70.20
35305;DHT22;26433;48.034;-1.764;2023-07-30T19:14:04;21.70;70.90
35305;DHT22;26433;48.034;-1.764;2023-07-30T19:24:13;21.50;71.00
35305;DHT22;26433;48.034;-1.764;2023-07-30T19:29:17;21.40;71.90
35305;DHT22;26433;48.034;-1.764;2023-07-30T19:34:21;21.40;72.30
35305;DHT22;26433;48.034;-1.764;2023-07-30T19:39:26;21.30;71.60
35305;DHT22;26433;48.034;-1.764;2023-07-30T19:44:29;21.30;72.40
35305;DHT22;26433;48.034;-1.764;2023-07-30T19:54:40;21.30;72.00
35305;DHT22;26433;48.034;-1.764;2023-07-30T19:59:44;21.20;73.50
35305;DHT22;26433;48.034;-1.764;2023-07-30T20:09:53;20.80;73.00
35305;DHT22;26433;48.034;-1.764;2023-07-30T20:14:57;20.80;74.20
35305;DHT22;26433;48.034;-1.764;2023-07-30T20:25:07;20.70;73.40
35305;DHT22;26433;48.034;-1.764;2023-07-30T20:30:10;20.70;74.10
35305;DHT22;26433;48.034;-1.764;2023-07-30T20:35:14;20.60;74.30
35305;DHT22;26433;48.034;-1.764;2023-07-30T20:40:19;20.50;73.90
35305;DHT22;26433;48.034;-1.764;2023-07-30T20:45:23;20.40;74.60
35305;DHT22;26433;48.034;-1.764;2023-07-30T20:55:32;20.40;74.20
35305;DHT22;26433;48.034;-1.764;2023-07-30T21:00:36;20.30;74.80
35305;DHT22;26433;48.034;-1.764;2023-07-30T21:05:40;20.20;75.30
35305;DHT22;26433;48.034;-1.764;2023-07-30T21:10:44;20.20;75.70
35305;DHT22;26433;48.034;-1.764;2023-07-30T21:15:48;20.10;76.20
35305;DHT22;26433;48.034;-1.764;2023-07-30T21:20:52;20.00;76.60
35305;DHT22;26433;48.034;-1.764;2023-07-30T21:25:57;19.80;77.20
35305;DHT22;26433;48.034;-1.764;2023-07-30T21:36:06;19.80;77.70
35305;DHT22;26433;48.034;-1.764;2023-07-30T21:41:11;19.70;78.50
35305;DHT22;26433;48.034;-1.764;2023-07-30T21:46:15;19.70;78.90
35305;DHT22;26433;48.034;-1.764;2023-07-30T21:56:24;19.60;79.20
35305;DHT22;26433;48.034;-1.764;2023-07-30T22:01:27;19.60;79.60
35305;DHT22;26433;48.034;-1.764;2023-07-30T22:06:31;19.60;80.20
35305;DHT22;26433;48.034;-1.764;2023-07-30T22:11:36;19.60;80.40
35305;DHT22;26433;48.034;-1.764;2023-07-30T22:16:40;19.60;80.80
35305;DHT22;26433;48.034;-1.764;2023-07-30T22:26:49;19.50;81.90
35305;DHT22;26433;48.034;-1.764;2023-07-30T22:31:53;19.40;82.90
35305;DHT22;26433;48.034;-1.764;2023-07-30T22:42:02;19.40;83.80
35305;DHT22;26433;48.034;-1.764;2023-07-30T22:47:06;19.40;84.90
35305;DHT22;26433;48.034;-1.764;2023-07-30T22:52:11;19.30;85.30
35305;DHT22;26433;48.034;-1.764;2023-07-30T22:57:16;19.40;85.80
35305;DHT22;26433;48.034;-1.764;2023-07-30T23:02:20;19.30;86.30
35305;DHT22;26433;48.034;-1.764;2023-07-30T23:07:23;19.40;86.60
35305;DHT22;26433;48.034;-1.764;2023-07-30T23:12:28;19.30;87.20
35305;DHT22;26433;48.034;-1.764;2023-07-30T23:17:32;19.40;87.60
35305;DHT22;26433;48.034;-1.764;2023-07-30T23:22:35;19.40;87.60
35305;DHT22;26433;48.034;-1.764;2023-07-30T23:27:40;19.40;88.10
35305;DHT22;26433;48.034;-1.764;2023-07-30T23:32:44;19.40;88.30
35305;DHT22;26433;48.034;-1.764;2023-07-30T23:37:48;19.40;88.80
35305;DHT22;26433;48.034;-1.764;2023-07-30T23:42:52;19.50;88.80
35305;DHT22;26433;48.034;-1.764;2023-07-30T23:47:56;19.50;89.30
35305;DHT22;26433;48.034;-1.764;2023-07-30T23:53:00;19.50;89.60
35305;DHT22;26433;48.034;-1.764;2023-07-30T23:58:05;19.40;90.10
